Time;durP1;ratioP1;P1;durP2;ratioP2;P2;SDS_P1;SDS_P2;PMS_P1;PMS_P2;Temp;Humidity;BMP_temperature;BMP_pressure;BME280_temperature;BME280_humidity;BME280_pressure;Samples;Min_cycle;Max_cycle;Signal;HPM_P1;HPM_P2
2024/03/04 00:01:27;;;;;;;4.60;3.30;;;6.30;99.90;;;;;;5030810;28;20587;-72
2024/03/04 00:03:54;;;;;;;6.43;4.13;;;6.20;99.90;;;;;;5030573;28;20256;-72
2024/03/04 00:06:21;;;;;;;7.05;4.05;;;6.20;99.90;;;;;;5030852;28;20223;-72
2024/03/04 00:08:47;;;;;;;4.75;3.70;;;6.20;99.90;;;;;;5030534;28;20210;-71
2024/03/04 00:11:14;;;;;;;5.25;3.13;;;6.10;99.90;;;;;;5030755;28;20675;-71
2024/03/04 00:13:41;;;;;;;6.10;3.40;;;6.10;99.90;;;;;;5030552;28;20226;-72
2024/03/04 00:16:09;;;;;;;4.28;3.60;;;6.10;99.90;;;;;;5030705;28;20210;-72
2024/03/04 00:18:36;;;;;;;6.38;3.90;;;6.10;99.90;;;;;;5030403;28;20292;-71
2024/03/04 00:21:05;;;;;;;3.70;3.22;;;6.00;99.90;;;;;;5034037;28;20625;-72
2024/03/04 00:23:33;;;;;;;8.57;4.40;;;6.00;99.90;;;;;;5033843;28;20341;-71
2024/03/04 00:26:00;;;;;;;6.72;3.95;;;6.00;99.90;;;;;;5034449;28;20287;-71
2024/03/04 00:28:26;;;;;;;5.18;4.18;;;6.00;99.90;;;;;;5034395;28;20201;-72
2024/03/04 00:30:54;;;;;;;6.00;4.45;;;5.90;99.90;;;;;;5033906;28;20548;-71
2024/03/04 00:33:22;;;;;;;6.93;3.83;;;5.90;99.90;;;;;;5034012;28;20292;-71
2024/03/04 00:35:49;;;;;;;8.13;3.63;;;5.90;99.90;;;;;;5034044;28;20575;-72
2024/03/04 00:38:16;;;;;;;4.35;3.53;;;6.00;99.90;;;;;;5034120;28;20209;-72
2024/03/04 00:40:42;;;;;;;6.78;4.13;;;5.90;99.90;;;;;;5033930;28;20202;-72
2024/03/04 00:43:10;;;;;;;5.65;3.83;;;5.90;99.90;;;;;;5034061;28;20226;-72
2024/03/04 00:45:37;;;;;;;7.82;4.10;;;5.90;99.90;;;;;;5033661;28;20242;-72
2024/03/04 00:48:04;;;;;;;7.78;5.30;;;5.90;99.90;;;;;;5033839;28;20236;-72
2024/03/04 00:50:32;;;;;;;7.82;4.30;;;5.90;99.90;;;;;;5033455;28;20213;-72
2024/03/04 00:53:00;;;;;;;6.28;4.43;;;5.80;99.90;;;;;;5033892;28;20292;-72
2024/03/04 00:55:29;;;;;;;5.20;4.50;;;5.80;99.90;;;;;;5033639;28;20226;-72
2024/03/04 00:57:55;;;;;;;5.40;3.50;;;5.80;99.90;;;;;;5033499;28;20305;-72
2024/03/04 01:00:23;;;;;;;7.43;4.38;;;5.70;99.90;;;;;;5033363;28;20244;-72
2024/03/04 01:02:50;;;;;;;4.68;3.90;;;5.70;99.90;;;;;;5033645;28;20507;-72
2024/03/04 01:05:18;;;;;;;8.05;3.72;;;5.70;99.90;;;;;;5033535;28;20718;-72
2024/03/04 01:07:47;;;;;;;5.95;3.90;;;5.70;99.90;;;;;;5033422;28;20213;-72
2024/03/04 01:10:13;;;;;;;6.10;4.47;;;5.70;99.90;;;;;;5033196;28;20235;-72
2024/03/04 01:12:40;;;;;;;8.63;3.85;;;5.60;99.90;;;;;;5033368;28;20834;-72
2024/03/04 01:15:08;;;;;;;5.47;4.32;;;5.60;99.90;;;;;;5033262;28;20230;-72
2024/03/04 01:17:36;;;;;;;5.90;3.63;;;5.60;99.90;;;;;;5033195;28;20210;-72
2024/03/04 01:20:03;;;;;;;5.00;3.47;;;5.60;99.90;;;;;;5032922;28;20214;-72
2024/03/04 01:22:30;;;;;;;6.60;4.32;;;5.60;99.90;;;;;;5033217;28;20231;-72
2024/03/04 01:24:58;;;;;;;5.45;3.75;;;5.60;99.90;;;;;;5032918;28;20236;-72
2024/03/04 01:27:26;;;;;;;5.40;3.35;;;5.60;99.90;;;;;;5033016;28;20213;-72
2024/03/04 01:29:52;;;;;;;4.63;4.05;;;5.70;99.90;;;;;;5032529;28;20252;-72
2024/03/04 01:32:21;;;;;;;6.72;4.55;;;5.70;99.90;;;;;;5032523;28;20209;-72
2024/03/04 01:34:48;;;;;;;7.30;5.00;;;5.70;99.90;;;;;;5032748;28;20560;-72
2024/03/04 01:37:15;;;;;;;7.93;4.63;;;5.70;99.90;;;;;;5033087;28;20202;-72
2024/03/04 01:39:42;;;;;;;6.15;3.92;;;5.70;99.90;;;;;;5032594;28;20213;-72
2024/03/04 01:42:10;;;;;;;7.63;4.88;;;5.80;99.90;;;;;;5032982;28;20210;-72
2024/03/04 01:44:37;;;;;;;5.15;4.10;;;5.80;99.90;;;;;;5032430;28;20614;-72
2024/03/04 01:47:07;;;;;;;5.60;4.00;;;5.90;99.90;;;;;;5032952;28;20213;-72
2024/03/04 01:49:36;;;;;;;5.40;3.58;;;5.90;99.90;;;;;;5032320;28;20698;-72
2024/03/04 01:52:05;;;;;;;5.13;4.25;;;6.00;99.90;;;;;;5032722;28;20223;-72
2024/03/04 01:54:32;;;;;;;6.15;4.40;;;6.00;99.90;;;;;;5032704;28;20237;-72
2024/03/04 01:56:59;;;;;;;7.38;5.07;;;6.00;99.90;;;;;;5032557;28;20236;-72
2024/03/04 01:59:28;;;;;;;8.15;4.90;;;6.00;99.90;;;;;;5032183;28;20202;-70
2024/03/04 02:01:55;;;;;;;4.32;3.92;;;6.10;99.90;;;;;;5032513;28;20213;-70
2024/03/04 02:04:22;;;;;;;6.07;4.25;;;6.00;99.90;;;;;;5032300;28;20657;-70
2024/03/04 02:06:50;;;;;;;5.90;4.60;;;6.00;99.90;;;;;;5032370;28;20222;-70
2024/03/04 02:09:19;;;;;;;4.43;3.78;;;6.00;99.90;;;;;;5032417;28;20205;-70
2024/03/04 02:11:45;;;;;;;7.63;4.90;;;6.00;99.90;;;;;;5032174;28;20247;-70
2024/03/04 02:14:12;;;;;;;6.30;5.03;;;6.00;99.90;;;;;;5032511;28;20599;-70
2024/03/04 02:16:40;;;;;;;6.43;4.53;;;6.00;99.90;;;;;;5032269;28;20202;-71
2024/03/04 02:19:11;;;;;;;6.32;5.22;;;5.90;99.90;;;;;;5031844;28;20226;-70
2024/03/04 02:21:40;;;;;;;7.38;5.05;;;5.90;99.90;;;;;;5032294;28;20206;-71
2024/03/04 02:24:08;;;;;;;7.15;5.00;;;5.80;99.90;;;;;;5032032;28;20234;-71
2024/03/04 02:26:35;;;;;;;10.18;6.32;;;5.80;99.90;;;;;;5032062;28;20205;-71
2024/03/04 02:29:02;;;;;;;7.18;4.40;;;5.70;99.90;;;;;;5031656;28;20221;-71
2024/03/04 02:31:29;;;;;;;5.75;3.90;;;5.70;99.90;;;;;;5032060;28;20292;-71
2024/03/04 02:33:57;;;;;;;6.10;4.55;;;5.70;99.90;;;;;;5031786;28;20218;-71
2024/03/04 02:36:24;;;;;;;9.85;5.22;;;5.70;99.90;;;;;;5031912;28;20690;-71
2024/03/04 02:38:51;;;;;;;6.05;4.65;;;5.70;99.90;;;;;;5031695;28;20216;-71
2024/03/04 02:41:19;;;;;;;6.40;4.78;;;5.60;99.90;;;;;;5031898;28;20216;-71
2024/03/04 02:43:47;;;;;;;5.97;4.70;;;5.60;99.90;;;;;;5030531;28;20229;-72
2024/03/04 02:46:14;;;;;;;9.55;4.35;;;5.50;99.90;;;;;;5031935;28;20296;-71
2024/03/04 02:48:41;;;;;;;6.63;4.40;;;5.50;99.90;;;;;;5031543;28;20697;-71
2024/03/04 02:51:08;;;;;;;4.80;4.15;;;5.40;99.90;;;;;;5031502;28;20212;-72
2024/03/04 02:53:34;;;;;;;6.68;4.40;;;5.40;99.90;;;;;;5031351;28;20689;-72
2024/03/04 02:56:01;;;;;;;5.22;4.63;;;5.20;99.90;;;;;;5031868;28;20283;-71
2024/03/04 02:58:29;;;;;;;7.25;4.70;;;5.20;99.90;;;;;;5031943;28;20210;-71
2024/03/04 03:00:56;;;;;;;5.55;4.80;;;5.20;99.90;;;;;;5031391;28;20213;-71
2024/03/04 03:03:23;;;;;;;4.60;3.85;;;5.20;99.90;;;;;;5031678;28;20217;-71
2024/03/04 03:05:49;;;;;;;8.50;5.03;;;5.10;99.90;;;;;;5031214;28;20225;-70
2024/03/04 03:08:16;;;;;;;6.30;4.95;;;5.10;99.90;;;;;;5031312;28;20209;-71
2024/03/04 03:10:44;;;;;;;6.00;4.13;;;5.00;99.90;;;;;;5031208;28;20212;-70
2024/03/04 03:13:11;;;;;;;5.13;4.10;;;5.10;99.90;;;;;;5031288;28;20212;-70
2024/03/04 03:15:40;;;;;;;8.80;4.30;;;5.10;99.90;;;;;;5031248;28;20296;-70
2024/03/04 03:18:07;;;;;;;7.60;5.05;;;5.10;99.90;;;;;;5031226;28;20224;-70
2024/03/04 03:20:34;;;;;;;6.95;4.18;;;5.10;99.90;;;;;;5030859;28;20483;-70
2024/03/04 03:23:01;;;;;;;6.57;4.68;;;5.10;99.90;;;;;;5031168;28;20220;-70
2024/03/04 03:25:27;;;;;;;9.05;4.38;;;5.00;99.90;;;;;;5030982;28;20228;-70
2024/03/04 03:27:54;;;;;;;6.78;5.03;;;5.00;99.90;;;;;;5031054;28;20239;-70
2024/03/04 03:30:23;;;;;;;7.30;5.10;;;5.00;99.90;;;;;;5031091;28;20208;-70
2024/03/04 03:32:51;;;;;;;7.50;4.72;;;5.00;99.90;;;;;;5031366;28;20267;-72
2024/03/04 03:35:18;;;;;;;8.05;5.70;;;5.00;99.90;;;;;;5031019;28;20228;-71
2024/03/04 03:37:46;;;;;;;7.43;5.03;;;4.90;99.90;;;;;;5031080;28;20269;-71
2024/03/04 03:40:12;;;;;;;6.78;6.10;;;4.90;99.90;;;;;;5030651;28;20216;-71
2024/03/04 03:42:40;;;;;;;7.82;5.57;;;4.90;99.90;;;;;;5030890;28;20208;-71
2024/03/04 03:45:08;;;;;;;6.63;5.60;;;4.90;99.90;;;;;;5030666;28;20245;-72
2024/03/04 03:47:35;;;;;;;11.07;4.80;;;4.90;99.90;;;;;;5030870;28;20239;-71
2024/03/04 03:50:03;;;;;;;7.68;5.05;;;4.90;99.90;;;;;;5030413;28;20666;-71
2024/03/04 03:52:31;;;;;;;8.20;4.70;;;4.80;99.90;;;;;;5030877;28;20210;-72
2024/03/04 03:54:58;;;;;;;8.73;4.15;;;4.80;99.90;;;;;;5032632;28;20224;-71
2024/03/04 03:57:25;;;;;;;5.80;4.90;;;4.90;99.90;;;;;;5027948;28;20231;-72
2024/03/04 03:59:52;;;;;;;7.82;4.85;;;4.90;99.90;;;;;;5027737;28;20209;-72
2024/03/04 04:02:19;;;;;;;6.40;4.55;;;4.90;99.90;;;;;;5027775;28;20691;-72
2024/03/04 04:04:46;;;;;;;6.65;4.72;;;5.00;99.90;;;;;;5028303;28;20596;-71
2024/03/04 04:07:14;;;;;;;10.68;5.00;;;5.00;99.90;;;;;;5026523;28;20280;-71
2024/03/04 04:09:41;;;;;;;8.98;4.60;;;5.10;99.90;;;;;;5028630;28;20202;-71
2024/03/04 04:12:09;;;;;;;9.00;5.60;;;5.20;99.90;;;;;;5026059;28;20856;-70
2024/03/04 04:14:36;;;;;;;7.85;5.20;;;5.20;99.90;;;;;;5028519;28;20511;-71
2024/03/04 04:17:04;;;;;;;6.80;4.65;;;5.30;99.90;;;;;;5026575;28;20663;-71
2024/03/04 04:19:31;;;;;;;7.47;5.53;;;5.40;99.90;;;;;;5028973;28;20209;-71
2024/03/04 04:21:57;;;;;;;9.60;5.53;;;5.40;99.90;;;;;;5034232;28;20224;-71
2024/03/04 04:24:25;;;;;;;7.75;5.03;;;5.50;99.90;;;;;;5034176;28;20602;-71
2024/03/04 04:26:52;;;;;;;6.93;6.00;;;5.60;99.90;;;;;;5033363;28;20449;-70
2024/03/04 04:29:19;;;;;;;8.70;6.35;;;5.60;99.90;;;;;;5033769;28;20217;-69
2024/03/04 04:31:45;;;;;;;8.30;5.57;;;5.60;99.90;;;;;;5034090;28;20675;-69
2024/03/04 04:34:13;;;;;;;5.53;4.60;;;5.60;99.90;;;;;;5033920;28;20331;-69
2024/03/04 04:36:47;;;;;;;6.00;4.38;;;5.70;99.90;;;;;;5033960;28;20212;-69
2024/03/04 04:39:14;;;;;;;8.20;5.45;;;5.70;99.90;;;;;;5024415;28;20209;-69
2024/03/04 04:41:42;;;;;;;7.75;5.03;;;5.80;99.90;;;;;;5031916;28;20687;-69
2024/03/04 04:44:09;;;;;;;7.07;5.07;;;5.90;99.90;;;;;;5031505;28;20245;-69
2024/03/04 04:46:37;;;;;;;9.88;6.13;;;5.90;99.90;;;;;;5031960;28;20638;-69
2024/03/04 04:49:04;;;;;;;12.27;6.43;;;6.00;99.90;;;;;;5031131;28;20218;-69
2024/03/04 04:51:31;;;;;;;12.60;5.72;;;6.00;99.90;;;;;;5032037;28;20214;-69
2024/03/04 04:53:58;;;;;;;7.47;5.43;;;6.00;99.90;;;;;;5032156;28;20316;-69
2024/03/04 04:56:27;;;;;;;7.55;4.70;;;6.10;99.90;;;;;;5041261;28;20244;-69
2024/03/04 04:58:55;;;;;;;9.27;6.00;;;6.10;99.90;;;;;;5033564;28;20210;-69
2024/03/04 05:01:26;;;;;;;6.90;4.82;;;6.20;99.90;;;;;;5033213;28;20206;-69
2024/03/04 05:03:53;;;;;;;8.63;4.80;;;6.20;99.90;;;;;;5033440;28;20717;-68
2024/03/04 05:06:20;;;;;;;7.97;5.30;;;6.20;99.90;;;;;;5032450;28;20261;-69
2024/03/04 05:08:47;;;;;;;8.82;5.50;;;6.30;99.90;;;;;;5033395;28;20291;-69
2024/03/04 05:11:13;;;;;;;7.95;6.55;;;6.40;99.90;;;;;;5033106;28;20201;-69
2024/03/04 05:13:40;;;;;;;5.18;4.13;;;6.40;99.90;;;;;;5034047;28;20263;-69
2024/03/04 05:16:09;;;;;;;7.90;5.72;;;6.40;99.90;;;;;;5034718;28;20202;-70
2024/03/04 05:18:36;;;;;;;6.50;5.00;;;6.40;99.90;;;;;;5033118;28;20606;-69
2024/03/04 05:21:04;;;;;;;7.88;6.50;;;6.50;99.90;;;;;;5033111;28;20213;-70
2024/03/04 05:23:31;;;;;;;7.60;4.95;;;6.50;99.90;;;;;;5033091;28;20213;-69
2024/03/04 05:25:57;;;;;;;9.57;5.65;;;6.60;99.90;;;;;;5033373;28;20230;-72
2024/03/04 05:28:24;;;;;;;7.00;5.60;;;6.60;99.90;;;;;;5032913;28;20677;-69
2024/03/04 05:30:52;;;;;;;10.95;5.90;;;6.60;99.90;;;;;;5033036;28;20597;-69
2024/03/04 05:33:21;;;;;;;9.40;6.65;;;6.70;99.90;;;;;;5033564;28;20566;-70
2024/03/04 05:35:47;;;;;;;8.43;5.35;;;6.70;99.90;;;;;;5033715;28;20202;-69
2024/03/04 05:38:14;;;;;;;11.25;5.53;;;6.80;99.90;;;;;;5032656;28;20232;-69
2024/03/04 05:40:41;;;;;;;8.20;5.63;;;6.80;99.90;;;;;;5032686;28;20300;-69
2024/03/04 05:43:08;;;;;;;9.93;6.30;;;6.80;99.90;;;;;;5033003;28;20202;-70
2024/03/04 05:45:34;;;;;;;8.93;5.97;;;6.90;99.90;;;;;;5032956;28;20678;-69
2024/03/04 05:48:01;;;;;;;10.45;6.25;;;6.90;99.90;;;;;;5032761;28;20206;-68
2024/03/04 05:50:29;;;;;;;7.25;5.18;;;6.90;99.90;;;;;;5032305;28;20210;-69
2024/03/04 05:52:56;;;;;;;10.23;6.03;;;6.90;99.90;;;;;;5032844;28;20214;-69
2024/03/04 05:55:23;;;;;;;11.05;6.45;;;6.90;99.90;;;;;;5029507;28;20221;-69
2024/03/04 05:57:50;;;;;;;8.32;6.07;;;6.90;99.90;;;;;;5032803;28;20245;-72
2024/03/04 06:00:17;;;;;;;10.65;7.03;;;7.00;99.90;;;;;;5032175;28;20212;-69
2024/03/04 06:02:44;;;;;;;9.73;6.28;;;7.00;99.90;;;;;;5032645;28;20252;-69
2024/03/04 06:05:13;;;;;;;13.23;7.07;;;7.00;99.90;;;;;;5032275;28;20223;-69
2024/03/04 06:07:41;;;;;;;11.98;7.28;;;7.10;99.90;;;;;;5032472;28;20639;-69
2024/03/04 06:10:09;;;;;;;11.75;8.05;;;7.10;99.90;;;;;;5032056;28;20212;-68
2024/03/04 06:12:36;;;;;;;10.35;7.05;;;7.10;99.90;;;;;;5032467;28;20213;-69
2024/03/04 06:15:03;;;;;;;17.35;8.18;;;7.20;99.90;;;;;;5032070;28;20226;-69
2024/03/04 06:17:30;;;;;;;15.18;7.88;;;7.20;99.90;;;;;;5031777;28;20205;-69
2024/03/04 06:19:57;;;;;;;15.77;7.93;;;7.30;99.90;;;;;;5031932;28;20240;-68
2024/03/04 06:22:23;;;;;;;12.05;7.25;;;7.30;99.90;;;;;;5031924;28;20215;-69
2024/03/04 06:24:52;;;;;;;15.23;8.95;;;7.40;99.90;;;;;;5032078;28;20229;-69
2024/03/04 06:27:18;;;;;;;14.13;8.25;;;7.40;99.90;;;;;;5031825;28;20275;-69
2024/03/04 06:29:45;;;;;;;17.55;8.15;;;7.50;99.90;;;;;;5031675;28;20209;-69
2024/03/04 06:32:12;;;;;;;13.65;7.75;;;7.50;99.90;;;;;;5031862;28;20225;-68
2024/03/04 06:34:40;;;;;;;12.82;8.77;;;7.50;99.90;;;;;;5031844;28;20233;-69
2024/03/04 06:37:07;;;;;;;20.70;9.70;;;7.50;99.90;;;;;;5031729;28;20738;-69
2024/03/04 06:39:34;;;;;;;13.65;8.05;;;7.50;99.90;;;;;;5031519;28;20635;-69
2024/03/04 06:42:02;;;;;;;20.80;10.63;;;7.50;99.90;;;;;;5031897;28;20577;-69
2024/03/04 06:44:29;;;;;;;19.38;8.20;;;7.50;99.90;;;;;;5031370;28;20238;-70
2024/03/04 06:46:55;;;;;;;19.60;11.40;;;7.50;99.90;;;;;;5031759;28;20230;-69
2024/03/04 06:49:22;;;;;;;21.35;10.80;;;7.60;99.90;;;;;;5031452;28;20205;-70
2024/03/04 06:51:49;;;;;;;16.80;9.35;;;7.60;99.90;;;;;;5031694;28;20209;-72
2024/03/04 06:54:16;;;;;;;20.42;10.77;;;7.60;99.90;;;;;;5031569;28;20233;-70
2024/03/04 06:56:43;;;;;;;20.80;11.00;;;7.60;99.90;;;;;;5031676;28;20216;-70
2024/03/04 06:59:11;;;;;;;16.25;9.48;;;7.60;99.90;;;;;;5031202;28;20696;-70
2024/03/04 07:01:37;;;;;;;18.80;10.45;;;7.60;99.90;;;;;;5031438;28;20210;-70
2024/03/04 07:04:04;;;;;;;17.08;10.32;;;7.70;99.90;;;;;;5031525;28;20253;-70
2024/03/04 07:06:31;;;;;;;19.67;11.00;;;7.60;99.90;;;;;;5031216;28;20247;-70
2024/03/04 07:08:58;;;;;;;18.30;9.80;;;7.60;99.90;;;;;;5031223;28;20210;-70
2024/03/04 07:11:25;;;;;;;19.10;10.77;;;7.70;99.90;;;;;;5031015;28;20646;-70
2024/03/04 07:13:51;;;;;;;20.15;10.30;;;7.70;99.90;;;;;;5038461;28;20225;-70
2024/03/04 07:16:20;;;;;;;15.93;10.10;;;7.70;99.90;;;;;;5031168;28;20687;-70
2024/03/04 07:18:47;;;;;;;18.33;10.05;;;7.70;99.90;;;;;;5031261;28;20205;-70
2024/03/04 07:21:15;;;;;;;17.05;9.27;;;7.80;99.90;;;;;;5031009;28;20238;-70
2024/03/04 07:23:42;;;;;;;18.42;10.98;;;7.80;99.90;;;;;;5031265;28;20238;-70
2024/03/04 07:26:09;;;;;;;22.02;10.30;;;7.70;99.90;;;;;;5031178;28;20244;-70
2024/03/04 07:28:37;;;;;;;20.52;11.18;;;7.70;99.90;;;;;;5031709;28;20302;-70
2024/03/04 07:31:04;;;;;;;20.83;10.77;;;7.70;99.90;;;;;;5038107;28;20210;-70
2024/03/04 07:33:32;;;;;;;21.00;9.43;;;7.70;99.90;;;;;;5037540;28;20220;-70
2024/03/04 07:35:59;;;;;;;18.27;10.25;;;7.70;99.90;;;;;;5037755;28;20580;-70
2024/03/04 07:38:25;;;;;;;19.13;9.63;;;7.70;99.90;;;;;;5037413;28;20213;-70
2024/03/04 07:40:52;;;;;;;16.25;9.55;;;7.70;99.90;;;;;;5037680;28;20210;-70
2024/03/04 07:43:19;;;;;;;18.02;9.35;;;7.70;99.90;;;;;;5037538;28;20698;-70
2024/03/04 07:45:45;;;;;;;20.40;10.23;;;7.70;99.90;;;;;;5037482;28;20236;-70
2024/03/04 07:48:12;;;;;;;21.95;9.85;;;7.80;99.90;;;;;;5037611;28;20209;-69
2024/03/04 07:50:40;;;;;;;19.17;10.57;;;7.80;99.90;;;;;;5037637;28;20556;-70
2024/03/04 07:53:07;;;;;;;23.65;10.85;;;7.80;99.90;;;;;;5037687;28;20213;-70
2024/03/04 07:55:34;;;;;;;17.30;8.95;;;7.80;99.90;;;;;;5037720;28;20660;-70
2024/03/04 07:58:01;;;;;;;16.40;8.75;;;7.90;99.90;;;;;;5037569;28;20252;-70
2024/03/04 08:00:27;;;;;;;24.63;10.57;;;7.90;99.90;;;;;;5037077;28;20213;-70
2024/03/04 08:02:55;;;;;;;18.05;10.15;;;7.90;99.90;;;;;;5037650;28;20702;-70
2024/03/04 08:05:22;;;;;;;15.25;8.60;;;7.90;99.90;;;;;;5037106;28;20231;-70
2024/03/04 08:07:50;;;;;;;16.85;9.68;;;7.90;99.90;;;;;;5037724;28;20668;-70
2024/03/04 08:10:17;;;;;;;21.55;9.43;;;8.00;99.90;;;;;;5037131;28;20221;-70
2024/03/04 08:12:45;;;;;;;20.45;10.07;;;8.00;99.90;;;;;;5037302;28;20204;-70
2024/03/04 08:15:12;;;;;;;18.83;10.75;;;8.00;99.90;;;;;;5037349;28;20317;-70
2024/03/04 08:17:38;;;;;;;20.77;10.48;;;8.00;99.90;;;;;;5037147;28;20206;-70
2024/03/04 08:20:06;;;;;;;17.00;10.05;;;8.10;99.90;;;;;;5036893;28;20663;-70
2024/03/04 08:22:33;;;;;;;16.73;9.55;;;8.10;99.90;;;;;;5037052;28;20770;-70
2024/03/04 08:25:01;;;;;;;19.88;10.48;;;8.10;99.90;;;;;;5037800;28;20222;-70
2024/03/04 08:27:28;;;;;;;13.15;8.38;;;8.10;99.90;;;;;;5037042;28;20229;-70
2024/03/04 08:29:54;;;;;;;22.63;11.57;;;8.10;99.90;;;;;;5037252;28;20715;-70
2024/03/04 08:32:21;;;;;;;17.95;10.00;;;8.10;99.90;;;;;;5037107;28;20205;-70
2024/03/04 08:34:49;;;;;;;18.80;10.25;;;8.20;99.90;;;;;;5037129;28;20234;-71
2024/03/04 08:37:16;;;;;;;15.10;8.30;;;8.20;99.90;;;;;;5037167;28;20661;-70
2024/03/04 08:39:43;;;;;;;15.93;9.32;;;8.20;99.90;;;;;;5036957;28;20206;-70
2024/03/04 08:42:11;;;;;;;13.57;9.10;;;8.20;99.90;;;;;;5034243;28;20217;-70
2024/03/04 08:44:38;;;;;;;15.95;10.32;;;8.20;99.90;;;;;;5033732;28;20622;-70
2024/03/04 08:47:05;;;;;;;20.60;10.25;;;8.20;99.90;;;;;;5034095;28;20229;-70
2024/03/04 08:49:31;;;;;;;18.67;9.20;;;8.20;99.90;;;;;;5033397;28;20321;-70
2024/03/04 08:51:58;;;;;;;24.25;10.13;;;8.20;99.90;;;;;;5034296;28;20390;-70
2024/03/04 08:54:25;;;;;;;17.50;11.35;;;8.20;99.90;;;;;;5033703;28;20620;-70
2024/03/04 08:56:52;;;;;;;23.25;10.82;;;8.20;99.90;;;;;;5033968;28;20210;-70
2024/03/04 08:59:20;;;;;;;18.10;9.90;;;8.20;99.90;;;;;;5033461;28;20210;-70
2024/03/04 09:01:47;;;;;;;16.05;10.48;;;8.30;99.90;;;;;;5033716;28;20215;-69
2024/03/04 09:04:14;;;;;;;18.33;10.15;;;8.30;99.90;;;;;;5033743;28;20600;-69
2024/03/04 09:06:40;;;;;;;17.70;10.13;;;8.30;99.90;;;;;;5033666;28;20249;-71
2024/03/04 09:09:08;;;;;;;17.50;11.15;;;8.30;99.90;;;;;;5033327;28;20702;-70
2024/03/04 09:11:35;;;;;;;25.52;11.65;;;8.40;99.90;;;;;;5033591;28;20287;-70
2024/03/04 09:14:01;;;;;;;18.02;9.35;;;8.40;99.90;;;;;;5033525;28;20231;-70
2024/03/04 09:16:29;;;;;;;18.88;10.32;;;8.30;99.90;;;;;;5033319;28;20229;-70
2024/03/04 09:18:56;;;;;;;18.30;9.82;;;8.40;99.90;;;;;;5033168;28;20299;-70
2024/03/04 09:21:24;;;;;;;18.90;9.95;;;8.40;99.90;;;;;;5033184;28;20599;-71
2024/03/04 09:23:52;;;;;;;17.48;10.20;;;8.40;99.90;;;;;;5033369;28;20234;-71
2024/03/04 09:26:19;;;;;;;22.45;11.15;;;8.40;99.90;;;;;;5033222;28;20222;-71
2024/03/04 09:28:50;;;;;;;17.65;11.68;;;8.50;99.90;;;;;;5032939;28;20555;-71
2024/03/04 09:31:18;;;;;;;17.17;10.20;;;8.50;99.90;;;;;;5033163;28;20273;-70
2024/03/04 09:33:46;;;;;;;18.20;9.77;;;8.50;99.90;;;;;;5032746;28;20233;-71
2024/03/04 09:36:13;;;;;;;15.35;8.55;;;8.50;99.90;;;;;;5033244;28;20204;-71
2024/03/04 09:38:43;;;;;;;16.48;10.48;;;8.60;99.90;;;;;;5033105;28;20218;-71
2024/03/04 09:41:10;;;;;;;24.75;11.63;;;8.60;99.90;;;;;;5033247;28;20261;-71
2024/03/04 09:43:38;;;;;;;20.60;10.52;;;8.60;99.90;;;;;;5032622;28;20232;-70
2024/03/04 09:46:07;;;;;;;23.20;10.48;;;8.60;99.90;;;;;;5032957;28;20255;-71
2024/03/04 09:48:34;;;;;;;18.95;10.25;;;8.60;99.90;;;;;;5032482;28;20221;-70
2024/03/04 09:51:03;;;;;;;25.95;9.68;;;8.70;99.90;;;;;;5032899;28;20213;-71
2024/03/04 09:53:32;;;;;;;20.00;10.98;;;8.70;99.90;;;;;;5032015;28;20234;-71
2024/03/04 09:55:59;;;;;;;20.45;11.38;;;8.70;99.90;;;;;;5032884;28;20212;-71
2024/03/04 09:58:26;;;;;;;22.55;11.55;;;8.60;99.90;;;;;;5032681;28;20215;-71
2024/03/04 10:00:53;;;;;;;22.52;10.68;;;8.60;99.90;;;;;;5032550;28;20208;-71
2024/03/04 10:03:20;;;;;;;20.75;11.77;;;8.60;99.90;;;;;;5032468;28;20206;-71
2024/03/04 10:05:47;;;;;;;23.42;10.57;;;8.60;99.90;;;;;;5032387;28;20203;-71
2024/03/04 10:08:15;;;;;;;18.55;10.73;;;8.60;99.90;;;;;;5032446;28;20211;-71
2024/03/04 10:10:42;;;;;;;18.42;11.50;;;8.60;99.90;;;;;;5032162;28;20218;-71
2024/03/04 10:13:10;;;;;;;25.77;10.20;;;8.70;99.90;;;;;;5032653;28;20222;-71
2024/03/04 10:15:37;;;;;;;20.48;11.00;;;8.70;99.90;;;;;;5032131;28;20228;-71
2024/03/04 10:18:11;;;;;;;15.48;8.77;;;8.70;99.90;;;;;;5032498;28;20199;-71
2024/03/04 10:20:38;;;;;;;14.32;9.07;;;8.80;99.90;;;;;;5031944;28;20207;-71
2024/03/04 10:23:06;;;;;;;18.92;11.35;;;8.80;99.90;;;;;;5032439;28;20227;-71
2024/03/04 10:25:34;;;;;;;20.95;10.50;;;8.90;99.90;;;;;;5031966;28;20222;-71
2024/03/04 10:28:01;;;;;;;22.08;10.63;;;8.90;99.90;;;;;;5032169;28;20234;-71
2024/03/04 10:30:28;;;;;;;19.27;11.13;;;8.90;99.90;;;;;;5031830;28;20704;-70
2024/03/04 10:32:56;;;;;;;16.80;11.05;;;8.90;99.90;;;;;;5032543;28;20215;-71
2024/03/04 10:35:23;;;;;;;27.52;13.63;;;8.90;99.90;;;;;;5031851;28;20231;-71
2024/03/04 10:37:51;;;;;;;25.70;12.27;;;9.00;99.90;;;;;;5031892;28;20235;-71
2024/03/04 10:40:20;;;;;;;19.60;10.45;;;8.90;99.90;;;;;;5031802;28;20288;-70
2024/03/04 10:42:48;;;;;;;26.63;12.93;;;8.90;99.90;;;;;;5031776;28;20223;-70
2024/03/04 10:45:15;;;;;;;23.70;12.30;;;8.90;99.90;;;;;;5031589;28;20236;-70
2024/03/04 10:47:44;;;;;;;25.10;12.75;;;8.90;99.90;;;;;;5031566;28;20231;-70
2024/03/04 10:50:11;;;;;;;24.73;11.13;;;8.80;99.90;;;;;;5031705;28;20675;-70
2024/03/04 10:52:38;;;;;;;18.95;10.95;;;8.90;99.90;;;;;;5031521;28;20215;-71
2024/03/04 10:55:07;;;;;;;21.65;11.52;;;9.00;99.90;;;;;;5031812;28;20234;-72
2024/03/04 10:57:35;;;;;;;23.80;12.98;;;9.00;99.90;;;;;;5031592;28;20207;-72
2024/03/04 11:00:17;;;;;;;17.67;9.95;;;9.00;99.90;;;;;;5031455;28;20209;-72
2024/03/04 11:02:51;;;;;;;25.63;13.35;;;9.10;99.90;;;;;;5031368;28;20215;-72
2024/03/04 11:05:22;;;;;;;27.80;11.82;;;9.10;99.90;;;;;;5030865;28;20229;-72
2024/03/04 11:07:51;;;;;;;18.75;10.75;;;9.20;99.90;;;;;;5031439;28;20235;-70
2024/03/04 11:10:31;;;;;;;26.17;13.05;;;9.20;99.90;;;;;;5031427;28;20210;-70
2024/03/04 11:13:05;;;;;;;23.27;11.38;;;9.20;99.90;;;;;;5031588;28;20393;-70
2024/03/04 11:15:39;;;;;;;18.48;11.02;;;9.20;99.90;;;;;;5034514;28;20228;-72
2024/03/04 11:18:15;;;;;;;25.05;12.00;;;9.20;99.90;;;;;;5031081;28;20210;-72
2024/03/04 11:20:46;;;;;;;27.38;11.82;;;9.20;99.90;;;;;;5030874;28;20706;-70
2024/03/04 11:23:13;;;;;;;18.77;10.50;;;9.20;99.90;;;;;;5031503;28;20204;-71
2024/03/04 11:25:41;;;;;;;23.40;10.88;;;9.20;99.90;;;;;;5030675;28;20238;-70
2024/03/04 11:28:09;;;;;;;27.02;12.00;;;9.20;99.90;;;;;;5031341;28;20227;-71
2024/03/04 11:30:39;;;;;;;24.05;12.20;;;9.10;99.90;;;;;;5030468;28;20598;-72
2024/03/04 11:33:38;;;;;;;25.42;11.18;;;9.00;99.90;;;;;;5031456;28;20209;-72
2024/03/04 11:36:05;;;;;;;22.15;11.90;;;9.00;99.90;;;;;;5031752;28;20242;-71
2024/03/04 11:38:41;;;;;;;22.80;11.18;;;9.00;99.90;;;;;;5030537;28;20205;-71
2024/03/04 11:41:08;;;;;;;25.90;12.73;;;9.00;99.90;;;;;;5031057;28;20265;-71
2024/03/04 11:43:45;;;;;;;24.20;10.35;;;9.00;99.90;;;;;;5031026;28;20558;-71
2024/03/04 11:46:14;;;;;;;22.85;11.98;;;9.00;99.90;;;;;;5031128;28;20696;-71
2024/03/04 11:48:42;;;;;;;25.08;10.20;;;9.10;99.90;;;;;;5030736;28;20355;-71
2024/03/04 11:51:09;;;;;;;24.38;11.05;;;9.10;99.90;;;;;;5031003;28;20222;-71
2024/03/04 11:53:38;;;;;;;19.90;11.48;;;9.00;99.90;;;;;;5030635;28;20211;-70
2024/03/04 11:56:06;;;;;;;23.35;12.02;;;9.00;99.90;;;;;;5031671;28;20704;-73
2024/03/04 11:58:34;;;;;;;28.80;12.93;;;9.00;99.90;;;;;;5031600;28;20234;-71
2024/03/04 12:01:01;;;;;;;35.17;12.55;;;9.00;99.90;;;;;;5031762;28;20212;-71
2024/03/04 12:03:29;;;;;;;19.45;10.30;;;9.00;99.90;;;;;;5033086;28;20209;-72
2024/03/04 12:05:56;;;;;;;24.13;11.20;;;9.10;99.90;;;;;;5030993;28;20315;-71
2024/03/04 12:08:22;;;;;;;26.52;12.70;;;9.10;99.90;;;;;;5030447;28;20223;-72
2024/03/04 12:10:50;;;;;;;28.33;11.40;;;9.20;99.90;;;;;;5030582;28;20217;-71
2024/03/04 12:13:20;;;;;;;29.98;11.93;;;9.20;99.90;;;;;;5032035;28;20213;-71
2024/03/04 12:15:47;;;;;;;31.25;12.68;;;9.10;99.90;;;;;;5031797;28;20235;-71
2024/03/04 12:18:13;;;;;;;24.00;12.52;;;9.10;99.90;;;;;;5034675;28;20299;-71
2024/03/04 12:20:42;;;;;;;25.10;11.93;;;9.10;99.90;;;;;;5034211;28;20209;-72
2024/03/04 12:23:10;;;;;;;25.30;11.65;;;9.20;99.90;;;;;;5034781;28;20225;-71
2024/03/04 12:25:37;;;;;;;23.15;13.00;;;9.20;99.90;;;;;;5034293;28;20305;-72
2024/03/04 12:28:05;;;;;;;25.45;11.35;;;9.20;99.90;;;;;;5034313;28;20647;-72
2024/03/04 12:30:33;;;;;;;23.35;12.02;;;9.30;99.90;;;;;;5033874;28;20263;-72
2024/03/04 12:33:02;;;;;;;28.02;13.55;;;9.40;99.90;;;;;;5034115;28;20617;-72
2024/03/04 12:35:30;;;;;;;29.13;13.75;;;9.40;99.90;;;;;;5034205;28;20233;-71
2024/03/04 12:38:00;;;;;;;28.38;13.35;;;9.30;99.90;;;;;;5033819;28;20205;-71
2024/03/04 12:40:28;;;;;;;26.20;11.77;;;9.30;99.90;;;;;;5033583;28;20265;-72
2024/03/04 12:42:58;;;;;;;25.58;12.35;;;9.20;99.90;;;;;;5034263;28;20303;-71
2024/03/04 12:45:25;;;;;;;24.05;13.60;;;9.20;99.90;;;;;;5033621;28;20234;-72
2024/03/04 12:47:52;;;;;;;20.30;12.60;;;9.20;99.90;;;;;;5033686;28;20261;-72
2024/03/04 12:50:20;;;;;;;27.40;12.18;;;9.20;99.90;;;;;;5033959;28;20220;-72